createdAt,value
2017-06-23T00:00:14.479Z,0
2017-06-23T00:01:14.451Z,0
2017-06-23T00:02:14.129Z,0
2017-06-23T00:03:14.406Z,0
2017-06-23T00:04:14.399Z,0
2017-06-23T00:05:14.385Z,0
2017-06-23T00:06:14.370Z,0
2017-06-23T00:07:14.335Z,0
2017-06-23T00:08:14.323Z,0
2017-06-23T00:09:14.308Z,0
2017-06-23T00:10:14.279Z,0
2017-06-23T00:11:14.019Z,0
2017-06-23T00:12:14.245Z,0
2017-06-23T00:13:13.636Z,0
2017-06-23T00:14:14.212Z,0
2017-06-23T00:15:14.196Z,0
2017-06-23T00:16:14.179Z,0
2017-06-23T00:17:14.152Z,0
2017-06-23T00:18:14.135Z,0
2017-06-23T00:19:13.819Z,0
2017-06-23T00:20:14.093Z,0
2017-06-23T00:21:14.133Z,0
2017-06-23T00:22:14.061Z,0
2017-06-23T00:23:14.046Z,0
2017-06-23T00:24:14.030Z,0
2017-06-23T00:25:14.024Z,0
2017-06-23T00:26:14.010Z,0
2017-06-23T00:27:13.993Z,0
2017-06-23T00:28:13.941Z,0
2017-06-23T00:29:13.932Z,0
2017-06-23T00:30:13.919Z,0
2017-06-23T00:31:13.921Z,0
2017-06-23T00:32:13.896Z,0
2017-06-23T00:33:13.921Z,0
2017-06-23T00:34:13.852Z,0
2017-06-23T00:35:13.543Z,0
2017-06-23T00:36:13.807Z,0
2017-06-23T00:37:13.780Z,0
2017-06-23T00:38:13.755Z,0
2017-06-23T00:39:13.742Z,0
2017-06-23T00:40:13.443Z,0
2017-06-23T00:41:13.713Z,0
2017-06-23T00:42:13.688Z,0
2017-06-23T00:43:13.685Z,0
2017-06-23T00:44:13.647Z,0
2017-06-23T00:45:13.383Z,0
2017-06-23T00:46:13.613Z,0
2017-06-23T00:47:13.294Z,0
2017-06-23T00:48:13.297Z,0
2017-06-23T00:49:13.605Z,0
2017-06-23T00:50:13.539Z,0
2017-06-23T00:51:13.529Z,0
2017-06-23T00:52:13.551Z,0
2017-06-23T00:53:13.510Z,0
2017-06-23T00:54:13.465Z,0
2017-06-23T00:55:13.445Z,0
2017-06-23T00:56:13.477Z,0
2017-06-23T00:57:13.427Z,0
2017-06-23T00:58:13.086Z,0
2017-06-23T00:59:13.381Z,0
2017-06-23T01:00:13.500Z,0
2017-06-23T01:01:13.335Z,0
2017-06-23T01:02:13.312Z,0
2017-06-23T01:03:13.294Z,0
2017-06-23T01:04:13.271Z,0
2017-06-23T01:05:13.258Z,0
2017-06-23T01:06:13.247Z,0
2017-06-23T01:07:12.924Z,0
2017-06-23T01:08:13.201Z,0
2017-06-23T01:09:13.237Z,0
2017-06-23T01:10:13.162Z,0
2017-06-23T01:11:12.855Z,0
2017-06-23T01:12:13.130Z,0
2017-06-23T01:13:13.106Z,0
2017-06-23T01:14:13.087Z,0
2017-06-23T01:15:13.067Z,0
2017-06-23T01:16:13.053Z,0
2017-06-23T01:17:13.037Z,0
2017-06-23T01:18:13.063Z,0
2017-06-23T01:19:12.998Z,0
2017-06-23T01:20:12.973Z,0
2017-06-23T01:21:12.961Z,0
2017-06-23T01:22:12.944Z,0
2017-06-23T01:23:12.644Z,0
2017-06-23T01:24:12.901Z,0
2017-06-23T01:25:12.880Z,0
2017-06-23T01:26:12.558Z,0
2017-06-23T01:27:12.539Z,0
2017-06-23T01:28:12.824Z,0
2017-06-23T01:29:12.804Z,0
2017-06-23T01:30:12.489Z,0
2017-06-23T01:31:12.159Z,0
2017-06-23T01:32:12.747Z,0
2017-06-23T01:33:12.742Z,0
2017-06-23T01:34:12.713Z,0
2017-06-23T01:35:12.694Z,0
2017-06-23T01:36:12.380Z,0
2017-06-23T01:37:12.654Z,0
2017-06-23T01:38:12.647Z,0
2017-06-23T01:39:12.617Z,0
2017-06-23T01:40:12.596Z,0
2017-06-23T01:41:12.578Z,0
2017-06-23T01:42:12.561Z,0
2017-06-23T01:43:12.238Z,0
2017-06-23T01:44:12.532Z,0
2017-06-23T01:45:12.222Z,0
2017-06-23T01:46:12.487Z,0
2017-06-23T01:47:12.461Z,0
2017-06-23T01:48:12.458Z,0
2017-06-23T01:49:12.429Z,0
2017-06-23T01:50:12.421Z,0
2017-06-23T01:51:12.392Z,0
2017-06-23T01:52:12.121Z,0
2017-06-23T01:53:12.055Z,0
2017-06-23T01:54:12.335Z,0
2017-06-23T01:55:12.321Z,0
2017-06-23T01:56:12.295Z,0
2017-06-23T01:57:11.988Z,0
2017-06-23T01:58:12.270Z,0
2017-06-23T01:59:12.246Z,0
2017-06-23T02:00:12.221Z,0
2017-06-23T02:01:12.211Z,0
2017-06-23T02:02:12.191Z,0
2017-06-23T02:03:12.174Z,0
2017-06-23T02:04:12.203Z,0
2017-06-23T02:05:12.125Z,0
2017-06-23T02:06:12.114Z,0
2017-06-23T02:07:12.144Z,0
2017-06-23T02:08:12.074Z,0
2017-06-23T02:09:12.110Z,0
2017-06-23T02:10:12.043Z,0
2017-06-23T02:11:12.014Z,0
2017-06-23T02:12:11.997Z,0
2017-06-23T02:13:11.677Z,0
2017-06-23T02:14:11.968Z,0
2017-06-23T02:15:11.649Z,0
2017-06-23T02:16:11.922Z,0
2017-06-23T02:17:11.604Z,0
2017-06-23T02:18:11.887Z,0
2017-06-23T02:19:11.864Z,0
2017-06-23T02:20:11.862Z,0
2017-06-23T02:21:11.832Z,0
2017-06-23T02:22:11.820Z,0
2017-06-23T02:23:11.796Z,0
2017-06-23T02:24:11.772Z,0
2017-06-23T02:25:11.755Z,0
2017-06-23T02:26:11.729Z,0
2017-06-23T02:27:11.762Z,0
2017-06-23T02:28:11.697Z,0
2017-06-23T02:29:11.679Z,0
2017-06-23T02:30:11.659Z,0
2017-06-23T02:31:11.638Z,0
2017-06-23T02:32:11.321Z,0
2017-06-23T02:33:11.607Z,0
2017-06-23T02:34:11.584Z,0
2017-06-23T02:35:11.619Z,0
2017-06-23T02:36:11.553Z,0
2017-06-23T02:37:11.554Z,0
2017-06-23T02:38:11.513Z,0
2017-06-23T02:39:11.506Z,4
2017-06-23T02:40:11.479Z,4
2017-06-23T02:41:11.459Z,4
2017-06-23T02:42:11.443Z,4
2017-06-23T02:43:11.423Z,0
2017-06-23T02:44:11.401Z,4
2017-06-23T02:45:11.081Z,4
2017-06-23T02:46:11.357Z,4
2017-06-23T02:47:11.361Z,4
2017-06-23T02:48:11.577Z,8
2017-06-23T02:49:11.001Z,4
2017-06-23T02:50:11.338Z,8
2017-06-23T02:51:11.258Z,4
2017-06-23T02:52:11.296Z,8
2017-06-23T02:53:11.241Z,12
2017-06-23T02:54:11.208Z,8
2017-06-23T02:55:11.193Z,12
2017-06-23T02:56:11.163Z,8
2017-06-23T02:57:11.155Z,12
2017-06-23T02:58:11.141Z,16
2017-06-23T02:59:11.114Z,16
2017-06-23T03:00:11.093Z,20
2017-06-23T03:01:11.081Z,24
2017-06-23T03:02:11.084Z,32
2017-06-23T03:03:11.037Z,40
2017-06-23T03:04:11.022Z,48
2017-06-23T03:05:10.996Z,56
2017-06-23T03:06:10.979Z,64
2017-06-23T03:07:10.962Z,72
2017-06-23T03:08:10.954Z,84
2017-06-23T03:09:10.934Z,92
2017-06-23T03:10:11.008Z,92
2017-06-23T03:11:10.887Z,92
2017-06-23T03:12:11.072Z,96
2017-06-23T03:13:10.845Z,100
2017-06-23T03:14:10.829Z,108
2017-06-23T03:15:10.810Z,128
2017-06-23T03:16:10.796Z,148
2017-06-23T03:17:11.019Z,164
2017-06-23T03:18:10.804Z,188
2017-06-23T03:19:10.736Z,212
2017-06-23T03:20:10.415Z,240
2017-06-23T03:21:10.703Z,276
2017-06-23T03:22:10.682Z,328
2017-06-23T03:23:10.663Z,384
2017-06-23T03:24:10.637Z,424
2017-06-23T03:25:10.630Z,488
2017-06-23T03:26:10.602Z,532
2017-06-23T03:27:10.592Z,600
2017-06-23T03:28:10.572Z,628
2017-06-23T03:29:10.608Z,680
2017-06-23T03:30:10.534Z,760
2017-06-23T03:31:10.565Z,812
2017-06-23T03:32:10.494Z,864
2017-06-23T03:33:10.494Z,948
2017-06-23T03:34:10.456Z,1000
2017-06-23T03:35:10.142Z,1064
2017-06-23T03:36:10.417Z,1144
2017-06-23T03:37:10.412Z,1200
2017-06-23T03:38:10.332Z,1284
2017-06-23T03:39:10.062Z,1360
2017-06-23T03:40:10.339Z,1432
2017-06-23T03:41:10.322Z,1380
2017-06-23T03:42:10.310Z,1344
2017-06-23T03:43:10.334Z,1364
2017-06-23T03:44:10.272Z,1316
2017-06-23T03:45:10.250Z,1296
2017-06-23T03:46:10.228Z,1396
2017-06-23T03:47:09.910Z,1548
2017-06-23T03:48:10.190Z,1668
2017-06-23T03:49:10.469Z,1720
2017-06-23T03:50:10.151Z,1704
2017-06-23T03:51:09.836Z,1708
2017-06-23T03:52:10.117Z,1744
2017-06-23T03:53:10.098Z,1768
2017-06-23T03:54:10.078Z,1824
2017-06-23T03:55:10.060Z,1892
2017-06-23T03:56:10.046Z,1924
2017-06-23T03:57:10.017Z,1952
2017-06-23T03:58:10.052Z,2048
2017-06-23T03:59:09.690Z,2124
2017-06-23T04:00:09.958Z,2108
2017-06-23T04:01:09.951Z,2096
2017-06-23T04:02:09.925Z,2116
2017-06-23T04:03:09.902Z,2292
2017-06-23T04:04:09.884Z,2772
2017-06-23T04:05:09.869Z,3008
2017-06-23T04:06:09.844Z,2788
2017-06-23T04:07:09.832Z,3544
2017-06-23T04:08:09.828Z,3756
2017-06-23T04:09:09.492Z,4104
2017-06-23T04:10:09.774Z,4392
2017-06-23T04:11:09.771Z,4536
2017-06-23T04:12:09.747Z,4808
2017-06-23T04:13:09.729Z,4904
2017-06-23T04:14:09.700Z,5020
2017-06-23T04:15:23.985Z,4968
2017-06-23T04:16:09.669Z,5216
2017-06-23T04:17:09.647Z,5420
2017-06-23T04:18:09.621Z,5672
2017-06-23T04:19:09.614Z,5396
2017-06-23T04:20:09.588Z,5116
2017-06-23T04:21:09.573Z,4524
2017-06-23T04:22:09.259Z,4440
2017-06-23T04:23:09.537Z,4556
2017-06-23T04:24:09.574Z,4860
2017-06-23T04:25:09.817Z,5716
2017-06-23T04:26:09.488Z,6104
2017-06-23T04:27:09.462Z,6756
2017-06-23T04:28:09.143Z,7880
2017-06-23T04:29:09.444Z,8552
2017-06-23T04:30:09.408Z,8584
2017-06-23T04:31:09.393Z,8764
2017-06-23T04:32:09.379Z,8752
2017-06-23T04:33:09.358Z,8576
2017-06-23T04:34:09.338Z,8512
2017-06-23T04:35:09.315Z,8552
2017-06-23T04:36:09.292Z,8540
2017-06-23T04:37:09.283Z,7876
2017-06-23T04:38:08.966Z,6768
2017-06-23T04:39:09.523Z,7220
2017-06-23T04:40:09.255Z,6976
2017-06-23T04:41:09.214Z,7072
2017-06-23T04:42:09.198Z,8384
2017-06-23T04:43:09.177Z,8056
2017-06-23T04:44:09.159Z,9964
2017-06-23T04:45:09.147Z,10432
2017-06-23T04:46:09.069Z,10384
2017-06-23T04:47:08.804Z,9912
2017-06-23T04:48:09.095Z,9320
2017-06-23T04:49:09.073Z,9516
2017-06-23T04:50:09.058Z,9176
2017-06-23T04:51:09.041Z,5532
2017-06-23T04:52:09.081Z,5352
2017-06-23T04:53:09.013Z,5912
2017-06-23T04:54:08.686Z,6140
2017-06-23T04:55:08.671Z,9024
2017-06-23T04:56:08.977Z,7712
2017-06-23T04:57:08.690Z,10576
2017-06-23T04:58:08.925Z,6996
2017-06-23T04:59:08.905Z,6364
2017-06-23T05:00:08.887Z,7124
2017-06-23T05:01:08.877Z,7004
2017-06-23T05:02:08.870Z,6420
2017-06-23T05:03:08.849Z,6224
2017-06-23T05:04:08.824Z,6196
2017-06-23T05:05:08.809Z,6568
2017-06-23T05:06:08.790Z,5800
2017-06-23T05:07:08.465Z,5936
2017-06-23T05:08:08.751Z,6544
2017-06-23T05:09:08.738Z,4448
2017-06-23T05:10:08.759Z,4456
2017-06-23T05:11:08.706Z,4920
2017-06-23T05:12:08.690Z,6956
2017-06-23T05:13:08.678Z,11416
2017-06-23T05:14:08.658Z,12484
2017-06-23T05:15:08.650Z,10828
2017-06-23T05:16:08.323Z,10288
2017-06-23T05:17:08.594Z,13036
2017-06-23T05:18:08.578Z,15456
2017-06-23T05:19:08.567Z,16256
2017-06-23T05:20:08.542Z,16704
2017-06-23T05:21:08.835Z,15744
2017-06-23T05:22:08.207Z,16704
2017-06-23T05:23:08.511Z,16736
2017-06-23T05:24:08.475Z,16064
2017-06-23T05:25:08.450Z,13876
2017-06-23T05:26:08.445Z,12792
2017-06-23T05:27:08.430Z,20416
2017-06-23T05:28:08.406Z,20320
2017-06-23T05:29:08.387Z,16288
2017-06-23T05:30:08.382Z,9328
2017-06-23T05:31:08.361Z,7608
2017-06-23T05:32:08.344Z,6020
2017-06-23T05:33:08.326Z,7724
2017-06-23T05:34:08.319Z,11472
2017-06-23T05:35:08.316Z,15200
2017-06-23T05:36:08.287Z,14636
2017-06-23T05:37:08.522Z,10900
2017-06-23T05:38:08.255Z,15648
2017-06-23T05:39:08.229Z,19616
2017-06-23T05:40:08.222Z,21376
2017-06-23T05:41:08.203Z,23776
2017-06-23T05:42:08.198Z,20576
2017-06-23T05:43:08.176Z,20896
2017-06-23T05:44:08.155Z,22816
2017-06-23T05:45:07.865Z,19872
2017-06-23T05:46:08.121Z,20064
2017-06-23T05:47:08.106Z,22656
2017-06-23T05:48:08.098Z,22720
2017-06-23T05:49:08.080Z,24160
2017-06-23T05:50:08.074Z,26592
2017-06-23T05:51:08.050Z,22656
2017-06-23T05:52:08.069Z,22752
2017-06-23T05:53:08.038Z,17504
2017-06-23T05:54:08.028Z,11380
2017-06-23T05:55:08.002Z,12048
2017-06-23T05:56:07.690Z,13064
2017-06-23T05:57:07.972Z,15024
2017-06-23T05:58:07.954Z,14608
2017-06-23T05:59:07.942Z,13416
2017-06-23T06:00:07.925Z,12844
2017-06-23T06:01:07.910Z,17632
2017-06-23T06:02:07.910Z,23776
2017-06-23T06:03:07.878Z,12992
2017-06-23T06:04:07.562Z,13748
2017-06-23T06:05:07.563Z,12516
2017-06-23T06:06:07.841Z,13752
2017-06-23T06:07:07.820Z,17216
2017-06-23T06:08:07.818Z,13704
2017-06-23T06:09:07.796Z,10804
2017-06-23T06:10:07.775Z,9636
2017-06-23T06:11:07.458Z,11812
2017-06-23T06:12:07.775Z,15140
2017-06-23T06:13:07.785Z,25280
2017-06-23T06:14:07.435Z,26784
2017-06-23T06:15:07.456Z,30624
2017-06-23T06:16:07.384Z,24192
2017-06-23T06:17:07.663Z,29664
2017-06-23T06:18:07.656Z,28544
2017-06-23T06:19:07.644Z,21728
2017-06-23T06:20:07.640Z,16864
2017-06-23T06:21:07.612Z,14416
2017-06-23T06:22:07.303Z,15080
2017-06-23T06:23:07.584Z,16928
2017-06-23T06:24:07.571Z,18080
2017-06-23T06:25:07.559Z,16096
2017-06-23T06:26:07.534Z,14776
2017-06-23T06:27:07.588Z,13388
2017-06-23T06:28:07.211Z,10800
2017-06-23T06:29:07.491Z,10092
2017-06-23T06:30:07.478Z,10564
2017-06-23T06:31:07.468Z,13012
2017-06-23T06:32:07.462Z,14816
2017-06-23T06:33:07.449Z,18464
2017-06-23T06:34:07.420Z,13052
2017-06-23T06:35:07.402Z,13280
2017-06-23T06:36:07.385Z,14240
2017-06-23T06:37:07.380Z,17824
2017-06-23T06:38:07.361Z,22048
2017-06-23T06:39:07.398Z,20800
2017-06-23T06:40:06.721Z,19200
2017-06-23T06:41:07.318Z,17952
2017-06-23T06:42:07.342Z,18112
2017-06-23T06:43:07.285Z,21888
2017-06-23T06:44:07.261Z,33056
2017-06-23T06:45:07.255Z,18336
2017-06-23T06:46:07.244Z,16256
2017-06-23T06:47:06.616Z,21120
2017-06-23T06:48:06.902Z,14808
2017-06-23T06:49:07.192Z,17312
2017-06-23T06:50:07.179Z,13972
2017-06-23T06:51:07.168Z,11880
2017-06-23T06:52:07.150Z,15436
2017-06-23T06:53:07.148Z,22048
2017-06-23T06:54:07.108Z,20416
2017-06-23T06:55:07.101Z,20672
2017-06-23T06:56:07.211Z,26720
2017-06-23T06:57:07.126Z,32480
2017-06-23T06:58:07.104Z,26464
2017-06-23T06:59:07.034Z,16308
2017-06-23T07:00:06.724Z,28832
2017-06-23T07:01:06.704Z,43360
2017-06-23T07:02:07.061Z,29568
2017-06-23T07:03:06.373Z,34528
2017-06-23T07:04:06.972Z,41568
2017-06-23T07:05:06.965Z,39744
2017-06-23T07:06:06.933Z,41792
2017-06-23T07:07:06.926Z,42240
2017-06-23T07:08:06.914Z,45472
2017-06-23T07:09:06.954Z,45760
2017-06-23T07:10:06.896Z,43040
2017-06-23T07:11:06.893Z,34112
2017-06-23T07:12:06.876Z,24800
2017-06-23T07:13:06.849Z,49312
2017-06-23T07:14:06.841Z,50080
2017-06-23T07:15:06.830Z,31040
2017-06-23T07:16:06.819Z,26752
2017-06-23T07:17:06.497Z,26272
2017-06-23T07:18:06.494Z,31648
2017-06-23T07:19:06.535Z,31648
2017-06-23T07:20:06.823Z,33856
2017-06-23T07:21:06.162Z,51808
2017-06-23T07:22:06.780Z,31360
2017-06-23T07:23:06.744Z,25056
2017-06-23T07:24:06.720Z,23936
2017-06-23T07:25:06.770Z,21824
2017-06-23T07:26:06.717Z,37920
2017-06-23T07:27:06.709Z,22080
2017-06-23T07:28:06.686Z,19616
2017-06-23T07:29:06.673Z,38304
2017-06-23T07:30:06.685Z,33888
2017-06-23T07:31:06.703Z,31840
2017-06-23T07:32:06.643Z,22592
2017-06-23T07:33:06.636Z,36160
2017-06-23T07:34:06.667Z,17664
2017-06-23T07:35:06.609Z,52000
2017-06-23T07:36:06.702Z,47904
2017-06-23T07:37:06.584Z,45696
2017-06-23T07:38:06.567Z,54784
2017-06-23T07:39:06.569Z,15236
2017-06-23T07:40:06.549Z,21248
2017-06-23T07:41:06.536Z,52768
2017-06-23T07:42:06.529Z,49472
2017-06-23T07:43:06.541Z,48288
2017-06-23T07:44:06.213Z,56096
2017-06-23T07:45:06.514Z,49760
2017-06-23T07:46:06.483Z,13776
2017-06-23T07:47:06.471Z,57536
2017-06-23T07:48:06.466Z,52384
2017-06-23T07:49:06.450Z,17760
2017-06-23T07:50:06.457Z,18784
2017-06-23T07:51:06.428Z,58496
2017-06-23T07:52:06.436Z,15620
2017-06-23T07:53:06.465Z,15368
2017-06-23T07:54:06.404Z,46592
2017-06-23T07:55:06.446Z,46240
2017-06-23T07:56:06.086Z,49696
2017-06-23T07:57:06.365Z,53120
2017-06-23T07:58:06.380Z,62528
2017-06-23T07:59:06.359Z,66432
2017-06-23T08:00:06.340Z,20416
2017-06-23T08:01:06.030Z,59616
2017-06-23T08:02:06.374Z,57760
2017-06-23T08:03:06.566Z,53056
2017-06-23T08:04:06.306Z,23424
2017-06-23T08:05:06.296Z,56160
2017-06-23T08:06:06.285Z,20704
2017-06-23T08:07:06.281Z,62208
2017-06-23T08:08:06.322Z,41120
2017-06-23T08:09:06.265Z,64288
2017-06-23T08:10:05.960Z,48352
2017-06-23T08:11:06.249Z,41696
2017-06-23T08:12:06.289Z,19232
2017-06-23T08:13:06.228Z,22368
2017-06-23T08:14:06.216Z,57440
2017-06-23T08:15:05.907Z,14992
2017-06-23T08:16:06.210Z,18656
2017-06-23T08:17:05.935Z,67648
2017-06-23T08:18:06.183Z,49024
2017-06-23T08:19:06.227Z,66464
2017-06-23T08:20:06.210Z,39520
2017-06-23T08:21:06.150Z,31168
2017-06-23T08:22:05.853Z,63232
2017-06-23T08:23:06.140Z,57728
2017-06-23T08:24:06.137Z,15508
2017-06-23T08:25:06.117Z,50272
2017-06-23T08:26:05.809Z,62528
2017-06-23T08:27:06.152Z,43040
2017-06-23T08:28:06.092Z,20640
2017-06-23T08:29:06.082Z,46720
2017-06-23T08:30:05.815Z,17760
2017-06-23T08:31:06.064Z,19072
2017-06-23T08:32:06.059Z,35104
2017-06-23T08:33:06.039Z,18848
2017-06-23T08:34:06.034Z,19392
2017-06-23T08:35:06.018Z,68096
2017-06-23T08:36:06.008Z,62752
2017-06-23T08:37:06.199Z,44992
2017-06-23T08:38:06.000Z,19552
2017-06-23T08:39:05.975Z,69504
2017-06-23T08:40:05.979Z,69696
2017-06-23T08:41:05.966Z,23200
2017-06-23T08:42:05.953Z,92000
2017-06-23T08:43:05.943Z,23904
2017-06-23T08:44:05.928Z,54720
2017-06-23T08:45:05.979Z,81216
2017-06-23T08:46:05.924Z,21760
2017-06-23T08:47:05.923Z,14472
2017-06-23T08:48:05.901Z,14568
2017-06-23T08:49:05.582Z,17024
2017-06-23T08:50:05.915Z,27680
2017-06-23T08:51:05.851Z,51392
2017-06-23T08:52:05.846Z,20928
2017-06-23T08:53:05.838Z,65184
2017-06-23T08:54:05.826Z,30336
2017-06-23T08:55:05.813Z,71168
2017-06-23T08:56:05.806Z,62752
2017-06-23T08:57:05.787Z,20992
2017-06-23T08:58:05.785Z,16416
2017-06-23T08:59:05.776Z,11632
2017-06-23T09:00:05.457Z,10812
2017-06-23T09:01:05.765Z,11272
2017-06-23T09:02:05.733Z,14292
2017-06-23T09:03:05.731Z,15344
2017-06-23T09:04:05.709Z,22144
2017-06-23T09:05:05.710Z,16512
2017-06-23T09:06:05.713Z,19840
2017-06-23T09:07:05.683Z,48384
2017-06-23T09:08:05.185Z,56352
2017-06-23T09:09:05.666Z,55904
2017-06-23T09:10:04.854Z,47328
2017-06-23T09:11:05.645Z,51776
2017-06-23T09:12:05.624Z,49664
2017-06-23T09:13:05.617Z,28032
2017-06-23T09:14:05.612Z,23104
2017-06-23T09:15:05.587Z,22528
2017-06-23T09:16:05.569Z,22080
2017-06-23T09:17:05.592Z,21120
2017-06-23T09:18:05.560Z,15048
2017-06-23T09:19:05.542Z,14740
2017-06-23T09:20:05.551Z,20384
2017-06-23T09:21:05.526Z,27296
2017-06-23T09:22:05.502Z,33024
2017-06-23T09:23:05.498Z,51872
2017-06-23T09:24:05.481Z,67872
2017-06-23T09:25:05.472Z,53984
2017-06-23T09:26:05.473Z,70368
2017-06-23T09:27:05.447Z,59744
2017-06-23T09:28:05.444Z,37088
2017-06-23T09:29:05.423Z,49504
2017-06-23T09:30:05.416Z,29216
2017-06-23T09:31:05.407Z,54048
2017-06-23T09:32:05.390Z,24032
2017-06-23T09:33:05.383Z,18080
2017-06-23T09:34:05.377Z,28544
2017-06-23T09:35:05.370Z,16992
2017-06-23T09:36:05.061Z,30048
2017-06-23T09:37:05.342Z,37472
2017-06-23T09:38:05.347Z,15216
2017-06-23T09:39:05.030Z,11296
2017-06-23T09:40:05.314Z,11220
2017-06-23T09:41:05.299Z,14308
2017-06-23T09:42:04.987Z,18240
2017-06-23T09:43:05.029Z,13884
2017-06-23T09:44:05.264Z,14724
2017-06-23T09:45:05.306Z,30880
2017-06-23T09:46:05.351Z,65088
2017-06-23T09:47:05.228Z,64544
2017-06-23T09:48:05.219Z,21760
2017-06-23T09:49:06.271Z,61280
2017-06-23T09:50:05.192Z,19936
2017-06-23T09:51:04.879Z,24256
2017-06-23T09:52:05.185Z,64416
2017-06-23T09:53:05.168Z,58400
2017-06-23T09:54:05.197Z,64480
2017-06-23T09:55:05.126Z,63392
2017-06-23T09:56:05.133Z,54496
2017-06-23T09:57:05.117Z,27392
2017-06-23T09:58:05.114Z,27552
2017-06-23T09:59:05.093Z,25408
2017-06-23T10:00:05.072Z,23392
2017-06-23T10:01:05.064Z,51040
2017-06-23T10:02:05.056Z,50976
2017-06-23T10:03:04.755Z,24000
2017-06-23T10:04:05.043Z,17504
2017-06-23T10:05:05.019Z,14704
2017-06-23T10:06:05.019Z,13580
2017-06-23T10:07:04.997Z,16224
2017-06-23T10:08:04.984Z,18176
2017-06-23T10:09:04.981Z,12848
2017-06-23T10:10:04.966Z,11612
2017-06-23T10:11:05.003Z,10852
2017-06-23T10:12:04.937Z,11816
2017-06-23T10:13:04.936Z,13452
2017-06-23T10:14:04.657Z,15736
2017-06-23T10:15:04.958Z,20352
2017-06-23T10:16:04.887Z,25888
2017-06-23T10:17:04.877Z,47296
2017-06-23T10:18:04.863Z,50560
2017-06-23T10:19:04.846Z,51808
2017-06-23T10:20:04.848Z,49760
2017-06-23T10:21:04.821Z,58656
2017-06-23T10:22:04.824Z,63264
2017-06-23T10:23:04.804Z,49856
2017-06-23T10:24:04.810Z,50944
2017-06-23T10:25:04.522Z,59680
2017-06-23T10:26:04.756Z,46496
2017-06-23T10:27:04.453Z,29376
2017-06-23T10:28:04.756Z,63040
2017-06-23T10:29:04.744Z,64224
2017-06-23T10:30:04.714Z,67296
2017-06-23T10:31:04.712Z,51808
2017-06-23T10:32:04.748Z,46048
2017-06-23T10:33:04.681Z,51232
2017-06-23T10:34:04.364Z,52192
2017-06-23T10:35:04.656Z,44224
2017-06-23T10:36:04.646Z,43360
2017-06-23T10:37:04.688Z,25440
2017-06-23T10:38:04.685Z,40160
2017-06-23T10:39:04.316Z,49536
2017-06-23T10:40:04.598Z,33760
2017-06-23T10:41:04.600Z,22848
2017-06-23T10:42:04.589Z,20320
2017-06-23T10:43:04.575Z,36672
2017-06-23T10:44:04.554Z,35040
2017-06-23T10:45:04.595Z,40448
2017-06-23T10:46:04.534Z,48960
2017-06-23T10:47:04.527Z,53920
2017-06-23T10:48:04.517Z,45056
2017-06-23T10:49:04.498Z,32864
2017-06-23T10:50:04.489Z,34688
2017-06-23T10:51:04.478Z,34240
2017-06-23T10:52:04.469Z,42464
2017-06-23T10:53:04.460Z,35264
2017-06-23T10:54:04.450Z,39904
2017-06-23T10:55:04.435Z,56288
2017-06-23T10:56:04.417Z,36768
2017-06-23T10:57:04.426Z,51552
2017-06-23T10:58:04.411Z,39968
2017-06-23T10:59:04.134Z,55200
2017-06-23T11:00:04.375Z,39296
2017-06-23T11:01:04.368Z,24416
2017-06-23T11:02:04.360Z,35072
2017-06-23T11:03:04.357Z,65344
2017-06-23T11:04:04.344Z,58752
2017-06-23T11:05:03.720Z,37280
2017-06-23T11:06:04.616Z,29472
2017-06-23T11:07:04.320Z,32128
2017-06-23T11:08:04.305Z,25952
2017-06-23T11:09:04.290Z,23008
2017-06-23T11:10:04.298Z,23808
2017-06-23T11:11:04.272Z,21280
2017-06-23T11:12:04.268Z,20256
2017-06-23T11:13:04.249Z,19296
2017-06-23T11:14:04.246Z,18400
2017-06-23T11:15:04.219Z,27200
2017-06-23T11:16:04.215Z,24608
2017-06-23T11:17:03.911Z,20320
2017-06-23T11:18:04.203Z,21600
2017-06-23T11:19:04.204Z,19744
2017-06-23T11:20:04.218Z,17984
2017-06-23T11:21:03.916Z,15852
2017-06-23T11:22:04.152Z,12860
2017-06-23T11:23:04.141Z,13636
2017-06-23T11:24:03.826Z,13460
2017-06-23T11:25:04.119Z,13436
2017-06-23T11:26:03.796Z,14960
2017-06-23T11:27:04.298Z,19872
2017-06-23T11:28:04.079Z,22016
2017-06-23T11:29:04.065Z,22880
2017-06-23T11:30:04.053Z,23072
2017-06-23T11:31:04.042Z,23136
2017-06-23T11:32:04.042Z,19200
2017-06-23T11:33:04.018Z,15012
2017-06-23T11:34:03.758Z,13816
2017-06-23T11:35:03.999Z,17888
2017-06-23T11:36:03.972Z,19936
2017-06-23T11:37:03.958Z,20672
2017-06-23T11:38:03.994Z,17024
2017-06-23T11:39:03.997Z,19712
2017-06-23T11:40:03.929Z,18720
2017-06-23T11:41:03.906Z,16736
2017-06-23T11:42:03.610Z,17600
2017-06-23T11:43:03.875Z,19808
2017-06-23T11:44:03.920Z,20064
2017-06-23T11:45:03.865Z,20032
2017-06-23T11:46:03.838Z,19680
2017-06-23T11:47:03.845Z,20512
2017-06-23T11:48:03.509Z,21568
2017-06-23T11:49:03.499Z,20832
2017-06-23T11:50:03.488Z,19936
2017-06-23T11:51:03.777Z,20352
2017-06-23T11:52:03.466Z,22528
2017-06-23T11:53:03.745Z,20000
2017-06-23T11:54:03.735Z,17888
2017-06-23T11:55:03.476Z,18208
2017-06-23T11:56:03.409Z,18720
2017-06-23T11:57:03.734Z,19200
2017-06-23T11:58:03.692Z,18304
2017-06-23T11:59:03.666Z,18816
2017-06-23T12:00:03.404Z,19776
2017-06-23T12:01:03.639Z,18688
2017-06-23T12:02:03.326Z,19456
2017-06-23T12:03:03.612Z,18304
2017-06-23T12:04:03.604Z,18656
2017-06-23T12:05:03.585Z,18144
2017-06-23T12:06:03.623Z,17344
2017-06-23T12:07:03.278Z,17760
2017-06-23T12:08:03.601Z,17856
2017-06-23T12:09:03.535Z,18368
2017-06-23T12:10:03.518Z,17312
2017-06-23T12:11:03.503Z,17856
2017-06-23T12:12:03.502Z,18592
2017-06-23T12:13:03.486Z,18048
2017-06-23T12:14:03.486Z,17760
2017-06-23T12:15:03.493Z,17344
2017-06-23T12:16:03.492Z,19168
2017-06-23T12:17:03.433Z,20480
2017-06-23T12:18:03.420Z,22336
2017-06-23T12:19:03.403Z,23264
2017-06-23T12:20:03.382Z,23328
2017-06-23T12:21:03.384Z,23808
2017-06-23T12:22:03.416Z,23232
2017-06-23T12:23:03.348Z,21120
2017-06-23T12:24:03.031Z,19968
2017-06-23T12:25:03.014Z,20768
2017-06-23T12:26:03.316Z,20448
2017-06-23T12:27:03.293Z,18336
2017-06-23T12:28:03.292Z,17792
2017-06-23T12:29:03.267Z,16832
2017-06-23T12:30:03.264Z,15576
2017-06-23T12:31:03.048Z,15340
2017-06-23T12:32:03.228Z,13892
2017-06-23T12:33:02.919Z,11404
2017-06-23T12:34:03.211Z,9700
2017-06-23T12:35:03.190Z,9324
2017-06-23T12:36:03.180Z,11384
2017-06-23T12:37:03.191Z,14568
2017-06-23T12:38:02.843Z,15760
2017-06-23T12:39:03.141Z,16384
2017-06-23T12:40:03.126Z,15372
2017-06-23T12:41:03.116Z,14308
2017-06-23T12:42:03.091Z,15912
2017-06-23T12:43:03.098Z,17472
2017-06-23T12:44:03.065Z,16448
2017-06-23T12:45:03.112Z,15136
2017-06-23T12:46:03.048Z,16928
2017-06-23T12:47:03.031Z,17856
2017-06-23T12:48:03.017Z,18496
2017-06-23T12:49:02.998Z,17952
2017-06-23T12:50:02.993Z,18592
2017-06-23T12:51:03.023Z,18848
2017-06-23T12:52:02.977Z,19712
2017-06-23T12:53:03.198Z,20416
2017-06-23T12:54:02.934Z,20704
2017-06-23T12:55:02.921Z,21408
2017-06-23T12:56:02.912Z,21120
2017-06-23T12:57:02.898Z,20736
2017-06-23T12:58:02.884Z,20576
2017-06-23T12:59:02.867Z,20544
2017-06-23T13:00:02.869Z,20384
2017-06-23T13:01:02.872Z,20416
2017-06-23T13:02:02.833Z,20320
2017-06-23T13:03:02.521Z,19904
2017-06-23T13:04:02.812Z,19296
2017-06-23T13:05:02.780Z,19008
2017-06-23T13:06:02.822Z,18720
2017-06-23T13:07:02.467Z,18336
2017-06-23T13:08:02.154Z,18176
2017-06-23T13:09:02.733Z,18336
2017-06-23T13:10:02.715Z,17920
2017-06-23T13:11:02.718Z,17888
2017-06-23T13:12:02.445Z,18368
2017-06-23T13:13:02.671Z,17984
2017-06-23T13:14:02.111Z,17952
2017-06-23T13:15:02.710Z,18016
2017-06-23T13:16:02.651Z,18048
2017-06-23T13:17:02.639Z,17920
2017-06-23T13:18:02.613Z,17952
2017-06-23T13:19:02.661Z,17824
2017-06-23T13:20:02.285Z,17536
2017-06-23T13:21:02.276Z,17280